createdAt,value
2022-08-07T00:00:39.950Z,17.15
2022-08-07T00:03:09.321Z,17.67
2022-08-07T00:05:37.579Z,15.45
2022-08-07T00:08:05.839Z,15.98
2022-08-07T00:10:35.802Z,15.40
2022-08-07T00:13:23.878Z,17.98
2022-08-07T00:15:53.572Z,17.35
2022-08-07T00:18:25.194Z,16.98
2022-08-07T00:21:56.369Z,15.88
2022-08-07T00:23:58.584Z,15.73
2022-08-07T00:26:49.139Z,16.15
2022-08-07T00:29:13.112Z,16.05
2022-08-07T00:31:43.070Z,15.57
2022-08-07T00:34:10.673Z,13.25
2022-08-07T00:36:43.367Z,17.65
2022-08-07T00:39:17.017Z,16.40
2022-08-07T00:42:02.199Z,14.55
2022-08-07T00:44:33.973Z,19.63
2022-08-07T00:47:16.165Z,18.27
2022-08-07T00:50:19.311Z,14.23
2022-08-07T00:52:41.198Z,17.10
2022-08-07T00:55:10.558Z,13.93
2022-08-07T00:57:55.064Z,15.88
2022-08-07T01:00:23.773Z,14.60
2022-08-07T01:02:52.563Z,16.45
2022-08-07T01:05:24.538Z,16.35
2022-08-07T01:07:52.432Z,17.70
2022-08-07T01:10:22.803Z,14.75
2022-08-07T01:12:53.708Z,13.50
2022-08-07T01:15:35.684Z,13.25
2022-08-07T01:18:16.855Z,12.45
2022-08-07T01:23:35.481Z,16.63
2022-08-07T01:26:16.686Z,15.85
2022-08-07T01:28:49.877Z,14.32
2022-08-07T01:31:29.977Z,14.10
2022-08-07T01:34:11.953Z,11.27
2022-08-07T01:36:41.839Z,13.07
2022-08-07T01:39:17.114Z,11.57
2022-08-07T01:42:38.985Z,14.23
2022-08-07T01:44:54.741Z,12.98
2022-08-07T01:48:21.030Z,16.92
2022-08-07T01:50:11.481Z,14.43
2022-08-07T01:52:49.671Z,12.50
2022-08-07T01:55:28.793Z,13.25
2022-08-07T01:58:01.358Z,17.05
2022-08-07T02:01:09.333Z,13.27
2022-08-07T02:03:50.352Z,14.30
2022-08-07T02:06:30.691Z,11.50
2022-08-07T02:09:05.274Z,15.55
2022-08-07T02:12:02.928Z,14.43
2022-08-07T02:14:40.610Z,11.77
2022-08-07T02:17:16.669Z,16.33
2022-08-07T02:20:07.120Z,13.38
2022-08-07T02:22:41.432Z,12.98
2022-08-07T02:25:17.451Z,16.25
2022-08-07T02:27:57.028Z,11.98
2022-08-07T02:30:25.901Z,15.27
2022-08-07T02:33:03.710Z,11.52
2022-08-07T02:36:30.175Z,11.32
2022-08-07T02:38:35.872Z,14.90
2022-08-07T02:41:05.900Z,13.38
2022-08-07T02:43:39.706Z,14.65
2022-08-07T02:46:09.802Z,14.23
2022-08-07T02:48:39.133Z,14.88
2022-08-07T02:51:42.038Z,12.32
2022-08-07T02:54:13.213Z,11.65
2022-08-07T02:56:44.207Z,12.60
2022-08-07T02:59:23.934Z,12.40
2022-08-07T03:02:01.177Z,14.73
2022-08-07T03:04:30.938Z,11.60
2022-08-07T03:07:07.120Z,13.23
2022-08-07T03:09:44.429Z,9.88
2022-08-07T03:12:29.560Z,11.13
2022-08-07T03:15:07.519Z,11.82
2022-08-07T03:17:52.795Z,11.43
2022-08-07T03:20:24.247Z,11.27
2022-08-07T03:22:54.442Z,8.95
2022-08-07T03:25:23.933Z,14.30
2022-08-07T03:28:38.504Z,9.68
2022-08-07T03:31:19.139Z,9.68
2022-08-07T03:34:00.325Z,10.85
2022-08-07T03:36:31.086Z,12.07
2022-08-07T03:39:14.105Z,9.23
2022-08-07T03:41:47.766Z,11.15
2022-08-07T03:44:21.795Z,8.13
2022-08-07T03:47:13.267Z,10.80
2022-08-07T03:49:47.993Z,9.27
2022-08-07T03:52:26.455Z,10.55
2022-08-07T03:55:06.462Z,10.68
2022-08-07T03:58:33.772Z,8.85
2022-08-07T04:00:35.366Z,9.45
2022-08-07T04:03:05.340Z,8.70
2022-08-07T04:05:41.099Z,10.88
2022-08-07T04:08:21.109Z,9.90
2022-08-07T04:13:24.335Z,11.20
2022-08-07T04:15:56.175Z,13.20
2022-08-07T04:18:56.589Z,7.43
2022-08-07T04:21:14.507Z,9.52
2022-08-07T04:24:03.736Z,9.52
2022-08-07T04:26:31.558Z,13.15
2022-08-07T04:29:00.273Z,10.43
2022-08-07T04:32:02.913Z,15.18
2022-08-07T04:34:24.165Z,10.75
2022-08-07T04:36:55.423Z,10.88
2022-08-07T04:39:26.006Z,8.85
2022-08-07T04:41:54.341Z,14.55
2022-08-07T04:44:22.044Z,11.75
2022-08-07T04:47:56.911Z,11.77
2022-08-07T04:50:04.067Z,8.88
2022-08-07T04:52:51.954Z,8.68
2022-08-07T04:58:11.441Z,11.95
2022-08-07T04:58:48.800Z,10.10
2022-08-07T05:02:05.662Z,13.48
2022-08-07T05:04:50.277Z,14.40
2022-08-07T05:07:36.848Z,7.28
2022-08-07T05:10:13.996Z,11.73
2022-08-07T05:14:55.367Z,12.23
2022-08-07T05:16:07.998Z,7.85
2022-08-07T05:18:59.198Z,9.05
2022-08-07T05:22:00.767Z,8.70
2022-08-07T05:24:19.526Z,11.38
2022-08-07T05:26:57.206Z,10.30
2022-08-07T05:29:27.830Z,8.73
2022-08-07T05:32:19.137Z,9.68
2022-08-07T05:34:49.826Z,11.63
2022-08-07T05:37:25.342Z,10.55
2022-08-07T05:40:17.926Z,14.35
2022-08-07T05:42:55.852Z,9.65
2022-08-07T05:45:46.558Z,11.20
2022-08-07T05:48:15.482Z,12.43
2022-08-07T05:50:47.609Z,13.20
2022-08-07T05:54:12.901Z,9.27
2022-08-07T05:56:09.787Z,12.20
2022-08-07T05:58:52.321Z,11.18
2022-08-07T06:01:22.103Z,11.20
2022-08-07T06:03:58.679Z,9.85
2022-08-07T06:06:32.526Z,8.23
2022-08-07T06:09:04.947Z,11.63
2022-08-07T06:11:35.716Z,13.50
2022-08-07T06:14:12.148Z,9.88
2022-08-07T06:16:50.241Z,9.52
2022-08-07T06:19:57.496Z,10.85
2022-08-07T06:22:15.282Z,12.63
2022-08-07T06:24:58.435Z,10.50
2022-08-07T06:27:44.440Z,10.43
2022-08-07T06:30:35.093Z,12.27
2022-08-07T06:33:15.821Z,12.90
2022-08-07T06:36:06.505Z,8.60
2022-08-07T06:38:35.130Z,7.65
2022-08-07T06:41:16.055Z,13.93
2022-08-07T06:44:01.842Z,11.68
2022-08-07T06:46:40.043Z,13.82
2022-08-07T06:49:07.684Z,12.40
2022-08-07T06:51:49.644Z,10.15
2022-08-07T06:55:33.422Z,10.27
2022-08-07T06:57:10.459Z,10.57
2022-08-07T07:00:17.392Z,8.18
2022-08-07T07:02:49.201Z,10.20
2022-08-07T07:06:02.788Z,10.65
2022-08-07T07:08:12.355Z,7.78
2022-08-07T07:10:54.965Z,10.48
2022-08-07T07:13:55.424Z,7.57
2022-08-07T07:16:38.913Z,9.25
2022-08-07T07:19:55.736Z,11.02
2022-08-07T07:22:33.988Z,9.60
2022-08-07T07:25:14.166Z,15.57
2022-08-07T07:28:03.304Z,7.75
2022-08-07T07:30:39.678Z,16.00
2022-08-07T07:33:11.513Z,13.23
2022-08-07T07:35:50.669Z,8.88
2022-08-07T07:38:31.664Z,9.75
2022-08-07T07:41:04.541Z,10.13
2022-08-07T07:43:47.891Z,8.13
2022-08-07T07:46:55.163Z,7.88
2022-08-07T07:50:33.522Z,12.65
2022-08-07T07:52:13.698Z,10.40
2022-08-07T07:54:50.812Z,7.43
2022-08-07T07:57:51.655Z,8.85
2022-08-07T08:00:20.827Z,7.43
2022-08-07T08:03:05.597Z,10.02
2022-08-07T08:05:51.003Z,7.15
2022-08-07T08:08:34.602Z,9.57
2022-08-07T08:11:16.182Z,9.65
2022-08-07T08:13:57.077Z,8.90
2022-08-07T08:16:50.466Z,6.93
2022-08-07T08:20:18.529Z,9.15
2022-08-07T08:22:32.940Z,11.93
2022-08-07T08:25:42.625Z,7.50
2022-08-07T08:28:16.810Z,13.00
2022-08-07T08:30:55.892Z,10.32
2022-08-07T08:33:28.809Z,6.43
2022-08-07T08:36:01.918Z,8.82
2022-08-07T08:38:38.588Z,8.43
2022-08-07T08:41:21.652Z,6.40
2022-08-07T08:44:03.959Z,6.28
2022-08-07T08:46:50.858Z,9.13
2022-08-07T08:50:04.636Z,8.57
2022-08-07T08:52:36.010Z,6.00
2022-08-07T08:55:20.763Z,9.18
2022-08-07T08:58:20.333Z,14.43
2022-08-07T09:01:15.810Z,10.38
2022-08-07T09:04:25.943Z,10.43
2022-08-07T09:07:24.390Z,9.32
2022-08-07T09:10:48.123Z,8.15
2022-08-07T09:13:37.542Z,10.02
2022-08-07T09:16:29.861Z,9.07
2022-08-07T09:19:53.707Z,6.68
2022-08-07T09:24:34.081Z,10.68
2022-08-07T09:25:53.423Z,9.77
2022-08-07T09:29:24.428Z,8.30
2022-08-07T09:31:38.630Z,7.55
2022-08-07T09:34:29.926Z,8.52
2022-08-07T09:37:47.828Z,9.85
2022-08-07T09:40:35.663Z,11.10
2022-08-07T09:43:40.228Z,9.80
2022-08-07T09:47:52.710Z,11.30
2022-08-07T09:50:01.877Z,6.93
2022-08-07T09:52:51.626Z,7.90
2022-08-07T09:56:05.442Z,5.63
2022-08-07T09:59:37.121Z,8.15
2022-08-07T10:02:54.998Z,8.88
2022-08-07T10:05:58.205Z,5.53
2022-08-07T10:08:55.642Z,11.68
2022-08-07T10:12:02.035Z,15.60
2022-08-07T10:14:30.398Z,12.23
2022-08-07T10:18:01.616Z,7.68
2022-08-07T10:20:55.538Z,8.38
2022-08-07T10:24:05.477Z,6.90
2022-08-07T10:26:57.498Z,8.90
2022-08-07T10:29:52.010Z,7.43
2022-08-07T10:32:53.196Z,9.60
2022-08-07T10:35:25.668Z,7.43
2022-08-07T10:38:35.068Z,13.05
2022-08-07T10:41:54.635Z,7.10
2022-08-07T10:46:47.473Z,13.00
2022-08-07T10:49:49.871Z,9.18
2022-08-07T10:52:31.810Z,5.40
2022-08-07T10:55:37.783Z,7.78
2022-08-07T10:58:17.952Z,7.13
2022-08-07T11:01:35.692Z,10.48
2022-08-07T11:04:54.222Z,7.90
2022-08-07T11:07:59.387Z,10.68
2022-08-07T11:10:57.912Z,9.32
2022-08-07T11:14:42.722Z,8.85
2022-08-07T11:17:01.889Z,9.18
2022-08-07T11:20:19.267Z,14.35
2022-08-07T11:23:01.830Z,8.48
2022-08-07T11:26:06.419Z,13.70
2022-08-07T11:28:53.490Z,7.38
2022-08-07T11:31:42.590Z,9.55
2022-08-07T11:34:16.500Z,14.90
2022-08-07T11:37:13.213Z,9.00
2022-08-07T11:40:03.978Z,10.60
2022-08-07T11:43:15.547Z,7.38
2022-08-07T11:46:01.579Z,7.32
2022-08-07T11:49:50.289Z,8.18
2022-08-07T11:52:02.558Z,7.60
2022-08-07T11:55:02.273Z,5.30
2022-08-07T11:58:00.748Z,5.82
2022-08-07T12:00:41.083Z,5.38
2022-08-07T12:03:45.654Z,7.03
2022-08-07T12:06:39.110Z,6.13
2022-08-07T12:09:23.418Z,8.60
2022-08-07T12:12:10.592Z,4.60
2022-08-07T12:14:55.728Z,6.78
2022-08-07T12:17:59.365Z,5.10
2022-08-07T12:20:58.038Z,8.50
2022-08-07T12:24:06.129Z,5.65
2022-08-07T12:26:49.145Z,6.43
2022-08-07T12:29:38.003Z,5.05
2022-08-07T12:32:28.477Z,16.88
2022-08-07T12:34:59.444Z,17.80
2022-08-07T12:38:09.561Z,19.95
2022-08-07T12:40:47.941Z,14.57
2022-08-07T12:44:04.500Z,15.30
2022-08-07T12:46:38.951Z,25.08
2022-08-07T12:49:39.628Z,24.25
2022-08-07T12:52:18.307Z,18.13
2022-08-07T12:55:16.460Z,12.05
2022-08-07T12:58:01.445Z,11.45
2022-08-07T13:00:58.492Z,13.35
2022-08-07T13:04:02.316Z,10.05
2022-08-07T13:07:00.265Z,9.05
2022-08-07T13:10:28.423Z,9.70
2022-08-07T13:12:58.448Z,7.63
2022-08-07T13:15:42.960Z,11.60
2022-08-07T13:18:26.111Z,8.10
2022-08-07T13:21:37.773Z,7.70
2022-08-07T13:24:18.614Z,9.43
2022-08-07T13:26:54.690Z,8.23
2022-08-07T13:29:34.729Z,6.78
2022-08-07T13:32:31.211Z,13.20
2022-08-07T13:35:08.906Z,9.10
2022-08-07T13:37:58.778Z,10.52
2022-08-07T13:40:35.946Z,7.68
2022-08-07T13:43:16.054Z,6.70
2022-08-07T13:46:12.858Z,12.00
2022-08-07T13:48:38.685Z,6.78
2022-08-07T13:54:02.008Z,7.60
2022-08-07T13:56:35.517Z,7.47
2022-08-07T13:59:15.876Z,3.97
2022-08-07T14:02:04.161Z,4.15
2022-08-07T14:04:49.592Z,6.90
2022-08-07T14:07:23.643Z,6.75
2022-08-07T14:10:15.034Z,4.95
2022-08-07T14:12:58.803Z,6.88
2022-08-07T14:15:35.319Z,6.65
2022-08-07T14:18:27.924Z,6.20
2022-08-07T14:21:11.726Z,6.68
2022-08-07T14:24:09.676Z,4.65
2022-08-07T14:26:50.085Z,4.63
2022-08-07T14:30:08.227Z,4.38
2022-08-07T14:32:20.488Z,5.32
2022-08-07T14:34:53.572Z,4.47
2022-08-07T14:37:23.811Z,4.55
2022-08-07T14:40:16.273Z,3.97
2022-08-07T14:43:58.741Z,4.93
2022-08-07T14:46:01.962Z,6.55
2022-08-07T14:48:33.442Z,3.28
2022-08-07T14:51:15.716Z,3.92
2022-08-07T14:54:05.839Z,4.57
2022-08-07T15:00:03.442Z,3.20
2022-08-07T15:02:33.164Z,3.03
2022-08-07T15:05:03.722Z,5.15
2022-08-07T15:10:26.908Z,5.82
2022-08-07T15:16:00.227Z,5.90
2022-08-07T15:18:41.657Z,5.50
2022-08-07T15:21:43.936Z,6.38
2022-08-07T15:25:13.906Z,4.57
2022-08-07T15:27:12.584Z,4.72
2022-08-07T15:36:00.484Z,5.95
2022-08-07T15:38:18.288Z,5.25
2022-08-07T15:42:42.357Z,5.70
2022-08-07T15:44:01.754Z,3.90
2022-08-07T15:46:32.237Z,4.75
2022-08-07T15:52:02.113Z,8.25
2022-08-07T15:54:40.615Z,3.53
2022-08-07T15:57:39.733Z,5.32
2022-08-07T16:00:04.158Z,5.40
2022-08-07T16:02:41.369Z,4.80
2022-08-07T16:05:20.174Z,4.53
2022-08-07T16:08:31.006Z,7.75
2022-08-07T16:10:48.499Z,5.20
2022-08-07T16:13:39.604Z,6.63
2022-08-07T16:16:48.875Z,4.38
2022-08-07T16:19:42.934Z,7.78
2022-08-07T16:22:36.394Z,6.40
2022-08-07T16:25:55.555Z,4.13
2022-08-07T16:30:06.406Z,5.85
2022-08-07T16:31:51.784Z,6.07
2022-08-07T16:34:37.365Z,4.90
2022-08-07T16:38:06.386Z,4.10
2022-08-07T16:40:23.410Z,5.50
2022-08-07T16:43:05.584Z,5.55
2022-08-07T16:47:05.717Z,5.10
2022-08-07T16:50:26.772Z,7.45
2022-08-07T16:52:55.607Z,5.25
2022-08-07T16:56:04.786Z,8.90
2022-08-07T16:59:11.000Z,5.85
2022-08-07T17:02:03.150Z,6.13
2022-08-07T17:04:57.877Z,5.63
2022-08-07T17:07:51.961Z,9.80
2022-08-07T17:10:54.534Z,7.70
2022-08-07T17:13:41.081Z,7.47
2022-08-07T17:16:39.475Z,6.95
2022-08-07T17:20:01.832Z,7.70
2022-08-07T17:22:38.153Z,6.90
2022-08-07T17:25:19.196Z,4.82
2022-08-07T17:28:00.642Z,4.65
2022-08-07T17:30:35.670Z,5.65
2022-08-07T17:34:08.249Z,5.03
2022-08-07T17:36:26.259Z,5.38
2022-08-07T17:39:15.543Z,5.35
2022-08-07T17:42:04.786Z,4.47
2022-08-07T17:44:52.315Z,5.22
2022-08-07T17:47:42.874Z,5.53
2022-08-07T17:50:30.614Z,6.82
2022-08-07T17:53:08.745Z,4.65
2022-08-07T17:56:06.344Z,4.72
2022-08-07T17:58:56.807Z,5.18
2022-08-07T18:01:37.517Z,7.72
2022-08-07T18:04:31.206Z,15.90
2022-08-07T18:07:20.026Z,4.15
2022-08-07T18:10:06.003Z,5.72
2022-08-07T18:12:54.505Z,4.25
2022-08-07T18:15:33.111Z,8.90
2022-08-07T18:18:45.093Z,5.63
2022-08-07T18:21:28.750Z,6.63
2022-08-07T18:23:58.749Z,5.00
2022-08-07T18:27:06.933Z,4.25
2022-08-07T18:30:05.425Z,7.57
2022-08-07T18:33:10.917Z,7.28
2022-08-07T18:36:06.204Z,3.83
2022-08-07T18:39:01.334Z,4.55
2022-08-07T18:41:54.992Z,6.05
2022-08-07T18:45:39.758Z,6.03
2022-08-07T18:47:45.340Z,6.18
2022-08-07T18:50:48.901Z,5.78
2022-08-07T18:53:44.093Z,5.38
2022-08-07T18:56:31.795Z,4.32
2022-08-07T18:59:46.917Z,8.98
2022-08-07T19:02:36.817Z,5.22
2022-08-07T19:05:25.438Z,5.55
2022-08-07T19:08:21.961Z,7.43
2022-08-07T19:11:02.400Z,5.25
2022-08-07T19:14:11.790Z,5.85
2022-08-07T19:17:07.119Z,5.82
2022-08-07T19:19:56.200Z,7.13
2022-08-07T19:22:45.113Z,6.97
2022-08-07T19:26:25.178Z,6.63
2022-08-07T19:28:58.535Z,9.25
2022-08-07T19:31:39.565Z,8.77
2022-08-07T19:34:09.480Z,10.27
2022-08-07T19:36:43.959Z,7.63
2022-08-07T19:39:40.377Z,10.73
2022-08-07T19:42:24.468Z,10.70
2022-08-07T19:44:58.061Z,12.45
2022-08-07T19:47:36.587Z,11.05
2022-08-07T19:50:41.590Z,10.13
2022-08-07T19:52:59.193Z,13.82
2022-08-07T19:55:56.684Z,15.30
2022-08-07T19:58:28.096Z,11.07
2022-08-07T20:01:01.814Z,8.90
2022-08-07T20:03:34.767Z,6.82
2022-08-07T20:06:06.332Z,7.93
2022-08-07T20:08:48.695Z,7.53
2022-08-07T20:12:22.645Z,11.68
2022-08-07T20:14:20.814Z,11.20
2022-08-07T20:16:56.698Z,10.77
2022-08-07T20:19:47.949Z,8.77
2022-08-07T20:22:29.339Z,11.80
2022-08-07T20:25:19.733Z,9.85
2022-08-07T20:27:58.700Z,9.57
2022-08-07T20:30:36.575Z,8.95
2022-08-07T20:33:36.365Z,8.77
2022-08-07T20:36:03.424Z,9.18
2022-08-07T20:38:33.509Z,9.38
2022-08-07T20:41:13.605Z,9.02
2022-08-07T20:43:48.093Z,7.88
2022-08-07T20:46:26.923Z,8.77
2022-08-07T20:50:00.966Z,7.82
2022-08-07T20:51:50.466Z,9.73
2022-08-07T20:54:29.624Z,7.45
2022-08-07T20:57:15.496Z,8.55
2022-08-07T21:00:08.178Z,7.20
2022-08-07T21:02:58.718Z,10.43
2022-08-07T21:05:54.560Z,7.88
2022-08-07T21:08:37.735Z,8.73
2022-08-07T21:11:15.528Z,9.35
2022-08-07T21:14:16.743Z,8.15
2022-08-07T21:17:06.532Z,10.30
2022-08-07T21:19:51.260Z,9.93
2022-08-07T21:22:25.599Z,11.88
2022-08-07T21:25:23.600Z,9.15
2022-08-07T21:28:08.503Z,10.68
2022-08-07T21:31:00.666Z,14.60
2022-08-07T21:33:41.751Z,12.13
2022-08-07T21:36:50.420Z,14.10
2022-08-07T21:39:46.084Z,16.17
2022-08-07T21:42:46.139Z,18.48
2022-08-07T21:46:03.385Z,15.63
2022-08-07T21:48:33.571Z,15.65
2022-08-07T21:51:32.099Z,15.52
2022-08-07T21:54:29.139Z,14.65
2022-08-07T21:57:30.846Z,13.70
2022-08-07T22:00:07.415Z,15.77
2022-08-07T22:03:07.847Z,16.17
2022-08-07T22:05:50.193Z,14.15
2022-08-07T22:08:24.663Z,13.07
2022-08-07T22:11:00.008Z,15.05
2022-08-07T22:13:51.318Z,15.32
2022-08-07T22:16:46.891Z,18.65
2022-08-07T22:19:29.587Z,11.00
2022-08-07T22:22:20.787Z,14.18
2022-08-07T22:25:08.546Z,12.75
2022-08-07T22:28:07.735Z,15.10
2022-08-07T22:30:26.580Z,13.95
2022-08-07T22:33:05.112Z,8.45
2022-08-07T22:35:46.253Z,7.30
2022-08-07T22:38:49.068Z,10.15
2022-08-07T22:42:03.212Z,9.55
2022-08-07T22:44:20.486Z,12.05
2022-08-07T22:47:25.949Z,8.23
2022-08-07T22:50:03.667Z,10.07
2022-08-07T22:52:49.416Z,8.90
2022-08-07T22:55:29.943Z,11.95
2022-08-07T22:58:27.712Z,8.45
2022-08-07T23:01:15.319Z,12.40
2022-08-07T23:03:57.477Z,8.20
2022-08-07T23:06:35.552Z,9.85
2022-08-07T23:10:05.050Z,11.18
2022-08-07T23:12:34.098Z,14.00
2022-08-07T23:16:06.246Z,13.50
2022-08-07T23:18:32.406Z,12.65
2022-08-07T23:21:30.092Z,15.63
2022-08-07T23:24:16.999Z,12.45
2022-08-07T23:26:58.151Z,11.00
2022-08-07T23:30:38.483Z,9.40
2022-08-07T23:34:34.332Z,13.35
2022-08-07T23:36:06.247Z,16.35
2022-08-07T23:38:48.388Z,17.10
2022-08-07T23:41:33.015Z,19.65
2022-08-07T23:44:24.759Z,19.95
2022-08-07T23:47:12.302Z,23.13
2022-08-07T23:50:16.278Z,18.67
2022-08-07T23:53:08.541Z,17.95
2022-08-07T23:55:55.375Z,15.68
2022-08-07T23:59:10.747Z,19.42
